sensor_id;sensor_type;location;lat;lon;timestamp;temperature;humidity
12452;DHT22;6291;48.924;12.204;2023-05-10T00:01:14;14.40;99.90
12452;DHT22;6291;48.924;12.204;2023-05-10T00:06:19;14.40;99.90
12452;DHT22;6291;48.924;12.204;2023-05-10T00:11:22;14.30;99.90
12452;DHT22;6291;48.924;12.204;2023-05-10T00:16:26;14.30;99.90
12452;DHT22;6291;48.924;12.204;2023-05-10T00:21:30;14.10;99.90
12452;DHT22;6291;48.924;12.204;2023-05-10T00:26:35;14.00;99.90
12452;DHT22;6291;48.924;12.204;2023-05-10T00:31:38;13.90;99.90
12452;DHT22;6291;48.924;12.204;2023-05-10T00:36:43;13.90;99.90
12452;DHT22;6291;48.924;12.204;2023-05-10T00:41:46;13.90;99.90
12452;DHT22;6291;48.924;12.204;2023-05-10T00:46:51;13.80;99.90
12452;DHT22;6291;48.924;12.204;2023-05-10T00:51:56;13.80;99.90
12452;DHT22;6291;48.924;12.204;2023-05-10T00:57:00;13.60;99.90
12452;DHT22;6291;48.924;12.204;2023-05-10T01:02:03;13.60;99.90
12452;DHT22;6291;48.924;12.204;2023-05-10T01:07:08;13.60;99.90
12452;DHT22;6291;48.924;12.204;2023-05-10T01:12:12;13.60;99.90
12452;DHT22;6291;48.924;12.204;2023-05-10T01:17:17;13.70;99.90
12452;DHT22;6291;48.924;12.204;2023-05-10T01:28:23;13.60;99.90
12452;DHT22;6291;48.924;12.204;2023-05-10T01:33:37;13.70;99.90
12452;DHT22;6291;48.924;12.204;2023-05-10T01:38:46;13.80;99.90
12452;DHT22;6291;48.924;12.204;2023-05-10T01:44:00;13.70;99.90
12452;DHT22;6291;48.924;12.204;2023-05-10T01:49:09;13.70;99.90
12452;DHT22;6291;48.924;12.204;2023-05-10T01:54:13;13.70;99.90
12452;DHT22;6291;48.924;12.204;2023-05-10T01:59:20;13.80;99.90
12452;DHT22;6291;48.924;12.204;2023-05-10T02:04:27;13.80;99.90
12452;DHT22;6291;48.924;12.204;2023-05-10T02:09:32;13.90;99.90
12452;DHT22;6291;48.924;12.204;2023-05-10T02:14:37;13.80;99.90
12452;DHT22;6291;48.924;12.204;2023-05-10T02:19:43;13.80;99.90
12452;DHT22;6291;48.924;12.204;2023-05-10T02:24:49;13.90;99.90
12452;DHT22;6291;48.924;12.204;2023-05-10T02:29:53;13.90;99.90
12452;DHT22;6291;48.924;12.204;2023-05-10T02:34:59;13.90;99.90
12452;DHT22;6291;48.924;12.204;2023-05-10T02:40:06;13.80;99.90
12452;DHT22;6291;48.924;12.204;2023-05-10T02:45:12;13.80;99.90
12452;DHT22;6291;48.924;12.204;2023-05-10T02:50:19;13.60;99.90
12452;DHT22;6291;48.924;12.204;2023-05-10T02:55:26;13.40;99.90
12452;DHT22;6291;48.924;12.204;2023-05-10T03:00:34;13.30;99.90
12452;DHT22;6291;48.924;12.204;2023-05-10T03:05:39;13.10;99.90
12452;DHT22;6291;48.924;12.204;2023-05-10T03:10:50;13.40;99.90
12452;DHT22;6291;48.924;12.204;2023-05-10T03:16:01;13.60;99.90
12452;DHT22;6291;48.924;12.204;2023-05-10T03:21:12;13.50;99.90
12452;DHT22;6291;48.924;12.204;2023-05-10T03:26:20;13.40;99.90
12452;DHT22;6291;48.924;12.204;2023-05-10T03:31:25;13.40;99.90
12452;DHT22;6291;48.924;12.204;2023-05-10T03:36:31;13.20;99.90
12452;DHT22;6291;48.924;12.204;2023-05-10T03:41:35;13.20;99.90
12452;DHT22;6291;48.924;12.204;2023-05-10T03:46:38;13.00;99.90
12452;DHT22;6291;48.924;12.204;2023-05-10T03:51:43;13.10;1.00
12452;DHT22;6291;48.924;12.204;2023-05-10T03:56:46;13.00;1.00
12452;DHT22;6291;48.924;12.204;2023-05-10T04:01:52;12.80;1.00
12452;DHT22;6291;48.924;12.204;2023-05-10T04:06:57;12.70;1.00
12452;DHT22;6291;48.924;12.204;2023-05-10T04:12:00;12.70;99.90
12452;DHT22;6291;48.924;12.204;2023-05-10T04:17:04;12.60;1.00
12452;DHT22;6291;48.924;12.204;2023-05-10T04:22:10;12.50;99.90
12452;DHT22;6291;48.924;12.204;2023-05-10T04:27:13;12.40;99.90
12452;DHT22;6291;48.924;12.204;2023-05-10T04:32:16;12.40;1.00
12452;DHT22;6291;48.924;12.204;2023-05-10T04:37:22;12.50;1.00
12452;DHT22;6291;48.924;12.204;2023-05-10T04:42:25;13.00;1.00
12452;DHT22;6291;48.924;12.204;2023-05-10T04:47:28;11.10;99.90
12452;DHT22;6291;48.924;12.204;2023-05-10T04:52:33;12.30;1.00
12452;DHT22;6291;48.924;12.204;2023-05-10T04:57:37;12.30;84.80
12452;DHT22;6291;48.924;12.204;2023-05-10T05:02:42;12.20;1.00
12452;DHT22;6291;48.924;12.204;2023-05-10T05:07:48;12.20;1.00
12452;DHT22;6291;48.924;12.204;2023-05-10T05:12:51;12.20;1.00
12452;DHT22;6291;48.924;12.204;2023-05-10T05:17:54;11.90;1.00
12452;DHT22;6291;48.924;12.204;2023-05-10T05:22:59;11.80;99.90
12452;DHT22;6291;48.924;12.204;2023-05-10T05:28:03;11.80;1.00
12452;DHT22;6291;48.924;12.204;2023-05-10T05:33:06;11.90;1.00
12452;DHT22;6291;48.924;12.204;2023-05-10T05:38:11;11.90;1.00
12452;DHT22;6291;48.924;12.204;2023-05-10T05:43:14;11.90;99.90
12452;DHT22;6291;48.924;12.204;2023-05-10T05:48:17;12.00;1.00
12452;DHT22;6291;48.924;12.204;2023-05-10T05:53:22;12.10;1.00
12452;DHT22;6291;48.924;12.204;2023-05-10T05:58:25;12.10;1.00
12452;DHT22;6291;48.924;12.204;2023-05-10T06:03:29;12.20;1.00
12452;DHT22;6291;48.924;12.204;2023-05-10T06:08:34;12.10;1.00
12452;DHT22;6291;48.924;12.204;2023-05-10T06:13:37;12.20;99.90
12452;DHT22;6291;48.924;12.204;2023-05-10T06:18:41;12.40;99.90
12452;DHT22;6291;48.924;12.204;2023-05-10T06:23:45;12.50;1.00
12452;DHT22;6291;48.924;12.204;2023-05-10T06:28:48;12.50;1.00
12452;DHT22;6291;48.924;12.204;2023-05-10T06:33:52;12.80;1.00
12452;DHT22;6291;48.924;12.204;2023-05-10T06:38:59;12.90;1.00
12452;DHT22;6291;48.924;12.204;2023-05-10T06:44:02;13.00;1.00
12452;DHT22;6291;48.924;12.204;2023-05-10T06:49:05;13.10;59.40
12452;DHT22;6291;48.924;12.204;2023-05-10T06:54:10;13.10;1.00
12452;DHT22;6291;48.924;12.204;2023-05-10T06:59:13;13.40;83.90
12452;DHT22;6291;48.924;12.204;2023-05-10T07:04:18;13.40;99.90
12452;DHT22;6291;48.924;12.204;2023-05-10T07:09:23;13.60;1.00
12452;DHT22;6291;48.924;12.204;2023-05-10T07:14:26;13.80;1.00
12452;DHT22;6291;48.924;12.204;2023-05-10T07:19:30;14.00;99.90
12452;DHT22;6291;48.924;12.204;2023-05-10T07:24:36;14.10;1.00
12452;DHT22;6291;48.924;12.204;2023-05-10T07:29:39;14.00;99.90
12452;DHT22;6291;48.924;12.204;2023-05-10T07:34:42;14.00;99.90
12452;DHT22;6291;48.924;12.204;2023-05-10T07:39:47;16.50;99.90
12452;DHT22;6291;48.924;12.204;2023-05-10T07:44:50;14.20;99.90
12452;DHT22;6291;48.924;12.204;2023-05-10T07:49:54;14.70;1.00
12452;DHT22;6291;48.924;12.204;2023-05-10T07:54:58;14.90;1.00
12452;DHT22;6291;48.924;12.204;2023-05-10T08:00:02;14.80;1.00
12452;DHT22;6291;48.924;12.204;2023-05-10T08:05:14;14.80;99.90
12452;DHT22;6291;48.924;12.204;2023-05-10T08:10:19;14.90;1.00
12452;DHT22;6291;48.924;12.204;2023-05-10T08:15:22;14.20;99.90
12452;DHT22;6291;48.924;12.204;2023-05-10T08:20:26;15.10;1.00
12452;DHT22;6291;48.924;12.204;2023-05-10T08:25:31;15.40;1.00
12452;DHT22;6291;48.924;12.204;2023-05-10T08:30:34;15.30;1.00
12452;DHT22;6291;48.924;12.204;2023-05-10T08:35:37;15.30;1.00
12452;DHT22;6291;48.924;12.204;2023-05-10T08:40:43;15.70;1.00
12452;DHT22;6291;48.924;12.204;2023-05-10T08:45:49;15.40;1.00
12452;DHT22;6291;48.924;12.204;2023-05-10T08:50:54;15.80;1.00
12452;DHT22;6291;48.924;12.204;2023-05-10T08:56:02;16.30;1.00
12452;DHT22;6291;48.924;12.204;2023-05-10T09:01:06;16.30;1.00
12452;DHT22;6291;48.924;12.204;2023-05-10T09:06:11;16.60;1.00
12452;DHT22;6291;48.924;12.204;2023-05-10T09:11:17;16.90;99.90
12452;DHT22;6291;48.924;12.204;2023-05-10T09:16:21;16.60;99.90
12452;DHT22;6291;48.924;12.204;2023-05-10T09:21:25;14.80;1.00
12452;DHT22;6291;48.924;12.204;2023-05-10T09:26:30;15.10;1.00
12452;DHT22;6291;48.924;12.204;2023-05-10T09:31:47;15.20;1.00
12452;DHT22;6291;48.924;12.204;2023-05-10T09:36:56;15.10;1.00
12452;DHT22;6291;48.924;12.204;2023-05-10T09:42:02;15.20;1.00
12452;DHT22;6291;48.924;12.204;2023-05-10T09:47:06;15.20;1.00
12452;DHT22;6291;48.924;12.204;2023-05-10T09:52:10;15.40;1.00
12452;DHT22;6291;48.924;12.204;2023-05-10T09:57:21;15.70;1.00
12452;DHT22;6291;48.924;12.204;2023-05-10T10:02:28;15.90;1.00
12452;DHT22;6291;48.924;12.204;2023-05-10T10:07:32;16.10;1.00
12452;DHT22;6291;48.924;12.204;2023-05-10T10:12:37;16.50;1.00
12452;DHT22;6291;48.924;12.204;2023-05-10T10:17:41;16.80;99.90
12452;DHT22;6291;48.924;12.204;2023-05-10T10:22:45;16.60;99.90
12452;DHT22;6291;48.924;12.204;2023-05-10T10:28:04;16.70;99.90
12452;DHT22;6291;48.924;12.204;2023-05-10T10:33:36;16.60;99.90
12452;DHT22;6291;48.924;12.204;2023-05-10T10:39:01;17.10;99.90
12452;DHT22;6291;48.924;12.204;2023-05-10T10:44:26;15.90;99.90
12452;DHT22;6291;48.924;12.204;2023-05-10T10:49:44;21.10;99.90
12452;DHT22;6291;48.924;12.204;2023-05-10T10:54:51;21.80;99.90
12452;DHT22;6291;48.924;12.204;2023-05-10T11:00:21;23.00;99.90
12452;DHT22;6291;48.924;12.204;2023-05-10T11:11:08;22.50;99.90
12452;DHT22;6291;48.924;12.204;2023-05-10T11:16:22;23.60;99.90
12452;DHT22;6291;48.924;12.204;2023-05-10T11:21:26;22.90;99.90
12452;DHT22;6291;48.924;12.204;2023-05-10T11:26:31;21.30;99.90
12452;DHT22;6291;48.924;12.204;2023-05-10T11:31:42;21.00;99.90
12452;DHT22;6291;48.924;12.204;2023-05-10T11:36:51;20.40;99.90
12452;DHT22;6291;48.924;12.204;2023-05-10T11:41:55;20.20;99.90
12452;DHT22;6291;48.924;12.204;2023-05-10T11:47:01;20.70;99.90
12452;DHT22;6291;48.924;12.204;2023-05-10T11:52:05;22.00;99.90
12452;DHT22;6291;48.924;12.204;2023-05-10T11:57:09;22.20;99.90
12452;DHT22;6291;48.924;12.204;2023-05-10T12:02:14;20.60;99.90
12452;DHT22;6291;48.924;12.204;2023-05-10T12:07:18;20.10;99.90
12452;DHT22;6291;48.924;12.204;2023-05-10T12:12:21;19.80;99.90
12452;DHT22;6291;48.924;12.204;2023-05-10T12:17:29;19.30;99.90
12452;DHT22;6291;48.924;12.204;2023-05-10T12:22:33;18.70;99.90
12452;DHT22;6291;48.924;12.204;2023-05-10T12:27:37;17.50;99.90
12452;DHT22;6291;48.924;12.204;2023-05-10T12:32:43;16.50;99.90
12452;DHT22;6291;48.924;12.204;2023-05-10T12:37:47;15.50;99.90
12452;DHT22;6291;48.924;12.204;2023-05-10T12:42:51;15.60;99.90
12452;DHT22;6291;48.924;12.204;2023-05-10T12:47:55;15.30;1.00
12452;DHT22;6291;48.924;12.204;2023-05-10T12:52:59;15.50;99.90
12452;DHT22;6291;48.924;12.204;2023-05-10T12:58:02;15.80;1.00
12452;DHT22;6291;48.924;12.204;2023-05-10T13:03:07;15.90;99.90
12452;DHT22;6291;48.924;12.204;2023-05-10T13:08:10;16.00;1.00
12452;DHT22;6291;48.924;12.204;2023-05-10T13:13:14;16.80;1.00
12452;DHT22;6291;48.924;12.204;2023-05-10T13:18:19;16.80;1.00
12452;DHT22;6291;48.924;12.204;2023-05-10T13:23:23;17.60;99.90
12452;DHT22;6291;48.924;12.204;2023-05-10T13:28:26;17.60;99.90
12452;DHT22;6291;48.924;12.204;2023-05-10T13:33:31;16.30;99.90
12452;DHT22;6291;48.924;12.204;2023-05-10T13:38:34;15.30;1.00
12452;DHT22;6291;48.924;12.204;2023-05-10T13:43:38;11.80;1.00
12452;DHT22;6291;48.924;12.204;2023-05-10T13:48:42;14.60;99.90
12452;DHT22;6291;48.924;12.204;2023-05-10T13:53:46;14.80;1.00
12452;DHT22;6291;48.924;12.204;2023-05-10T13:58:49;15.00;1.00
12452;DHT22;6291;48.924;12.204;2023-05-10T14:03:54;14.90;1.00
12452;DHT22;6291;48.924;12.204;2023-05-10T14:08:57;14.80;1.00
12452;DHT22;6291;48.924;12.204;2023-05-10T14:14:01;14.90;1.00
12452;DHT22;6291;48.924;12.204;2023-05-10T14:19:05;14.80;1.00
12452;DHT22;6291;48.924;12.204;2023-05-10T14:24:09;14.70;1.00
12452;DHT22;6291;48.924;12.204;2023-05-10T14:29:12;14.60;99.90
12452;DHT22;6291;48.924;12.204;2023-05-10T14:34:17;14.90;1.00
12452;DHT22;6291;48.924;12.204;2023-05-10T14:39:20;14.80;1.00
12452;DHT22;6291;48.924;12.204;2023-05-10T14:44:24;14.60;1.00
12452;DHT22;6291;48.924;12.204;2023-05-10T14:49:29;14.50;1.00
12452;DHT22;6291;48.924;12.204;2023-05-10T14:54:32;14.50;1.00
12452;DHT22;6291;48.924;12.204;2023-05-10T14:59:36;14.50;1.00
12452;DHT22;6291;48.924;12.204;2023-05-10T15:04:41;14.50;1.00
12452;DHT22;6291;48.924;12.204;2023-05-10T15:09:45;13.90;1.00
12452;DHT22;6291;48.924;12.204;2023-05-10T15:14:48;14.30;1.00
12452;DHT22;6291;48.924;12.204;2023-05-10T15:19:53;14.40;1.00
12452;DHT22;6291;48.924;12.204;2023-05-10T15:24:56;14.40;1.00
12452;DHT22;6291;48.924;12.204;2023-05-10T15:30:00;14.70;1.00
12452;DHT22;6291;48.924;12.204;2023-05-10T15:35:05;14.60;50.20
12452;DHT22;6291;48.924;12.204;2023-05-10T15:40:09;14.20;1.00
12452;DHT22;6291;48.924;12.204;2023-05-10T15:45:13;13.90;1.00
12452;DHT22;6291;48.924;12.204;2023-05-10T15:50:19;13.60;99.90
12452;DHT22;6291;48.924;12.204;2023-05-10T15:55:22;17.50;1.00
12452;DHT22;6291;48.924;12.204;2023-05-10T16:00:25;13.50;1.00
12452;DHT22;6291;48.924;12.204;2023-05-10T16:05:30;13.30;99.90
12452;DHT22;6291;48.924;12.204;2023-05-10T16:10:34;13.30;99.90
12452;DHT22;6291;48.924;12.204;2023-05-10T16:15:40;13.00;99.90
12452;DHT22;6291;48.924;12.204;2023-05-10T16:20:45;13.10;99.90
12452;DHT22;6291;48.924;12.204;2023-05-10T16:25:49;13.00;99.90
12452;DHT22;6291;48.924;12.204;2023-05-10T16:30:52;13.00;99.90
12452;DHT22;6291;48.924;12.204;2023-05-10T16:35:57;17.10;99.90
12452;DHT22;6291;48.924;12.204;2023-05-10T16:41:01;12.90;99.90
12452;DHT22;6291;48.924;12.204;2023-05-10T16:46:09;12.80;99.90
12452;DHT22;6291;48.924;12.204;2023-05-10T16:51:14;12.80;99.90
12452;DHT22;6291;48.924;12.204;2023-05-10T16:56:17;12.70;99.90
12452;DHT22;6291;48.924;12.204;2023-05-10T17:01:22;12.70;99.90
12452;DHT22;6291;48.924;12.204;2023-05-10T17:06:29;12.80;99.90
12452;DHT22;6291;48.924;12.204;2023-05-10T17:11:32;12.70;99.90
12452;DHT22;6291;48.924;12.204;2023-05-10T17:16:36;12.70;99.90
12452;DHT22;6291;48.924;12.204;2023-05-10T17:21:40;12.80;99.90
12452;DHT22;6291;48.924;12.204;2023-05-10T17:26:44;12.90;99.90
12452;DHT22;6291;48.924;12.204;2023-05-10T17:31:47;12.90;99.90
12452;DHT22;6291;48.924;12.204;2023-05-10T17:36:53;12.90;99.90
12452;DHT22;6291;48.924;12.204;2023-05-10T17:41:56;12.90;99.90
12452;DHT22;6291;48.924;12.204;2023-05-10T17:47:00;12.80;99.90
12452;DHT22;6291;48.924;12.204;2023-05-10T17:52:07;12.70;99.90
12452;DHT22;6291;48.924;12.204;2023-05-10T17:57:10;12.60;99.90
12452;DHT22;6291;48.924;12.204;2023-05-10T18:02:13;12.60;99.90
12452;DHT22;6291;48.924;12.204;2023-05-10T18:07:18;12.50;99.90
12452;DHT22;6291;48.924;12.204;2023-05-10T18:12:24;12.50;99.90
12452;DHT22;6291;48.924;12.204;2023-05-10T18:17:27;12.50;99.90
12452;DHT22;6291;48.924;12.204;2023-05-10T18:27:38;12.40;99.90
12452;DHT22;6291;48.924;12.204;2023-05-10T18:32:42;12.30;99.90
12452;DHT22;6291;48.924;12.204;2023-05-10T18:37:46;12.40;99.90
12452;DHT22;6291;48.924;12.204;2023-05-10T18:42:50;12.40;99.90
12452;DHT22;6291;48.924;12.204;2023-05-10T18:47:54;12.30;99.90
12452;DHT22;6291;48.924;12.204;2023-05-10T18:52:59;12.40;99.90
12452;DHT22;6291;48.924;12.204;2023-05-10T18:58:02;12.40;99.90
12452;DHT22;6291;48.924;12.204;2023-05-10T19:03:06;12.30;99.90
12452;DHT22;6291;48.924;12.204;2023-05-10T19:08:11;12.30;99.90
12452;DHT22;6291;48.924;12.204;2023-05-10T19:13:14;12.30;99.90
12452;DHT22;6291;48.924;12.204;2023-05-10T19:18:19;12.30;99.90
12452;DHT22;6291;48.924;12.204;2023-05-10T19:23:24;12.20;99.90
12452;DHT22;6291;48.924;12.204;2023-05-10T19:28:27;12.20;99.90
12452;DHT22;6291;48.924;12.204;2023-05-10T19:33:31;12.20;99.90
12452;DHT22;6291;48.924;12.204;2023-05-10T19:38:36;12.10;99.90
12452;DHT22;6291;48.924;12.204;2023-05-10T19:43:40;12.00;99.90
12452;DHT22;6291;48.924;12.204;2023-05-10T19:48:44;12.00;99.90
12452;DHT22;6291;48.924;12.204;2023-05-10T19:53:49;11.90;99.90
12452;DHT22;6291;48.924;12.204;2023-05-10T19:58:52;11.90;99.90
12452;DHT22;6291;48.924;12.204;2023-05-10T20:03:56;11.90;99.90
12452;DHT22;6291;48.924;12.204;2023-05-10T20:09:01;11.90;99.90
12452;DHT22;6291;48.924;12.204;2023-05-10T20:14:04;11.80;99.90
12452;DHT22;6291;48.924;12.204;2023-05-10T20:19:08;11.80;99.90
12452;DHT22;6291;48.924;12.204;2023-05-10T20:24:14;11.80;99.90
12452;DHT22;6291;48.924;12.204;2023-05-10T20:29:17;11.80;99.90
12452;DHT22;6291;48.924;12.204;2023-05-10T20:34:21;11.80;99.90
12452;DHT22;6291;48.924;12.204;2023-05-10T20:39:26;11.80;99.90
12452;DHT22;6291;48.924;12.204;2023-05-10T20:44:30;12.90;99.90
12452;DHT22;6291;48.924;12.204;2023-05-10T20:49:34;11.70;99.90
12452;DHT22;6291;48.924;12.204;2023-05-10T20:54:40;11.60;99.90
12452;DHT22;6291;48.924;12.204;2023-05-10T20:59:44;11.60;99.90
12452;DHT22;6291;48.924;12.204;2023-05-10T21:04:48;11.60;99.90
12452;DHT22;6291;48.924;12.204;2023-05-10T21:09:53;11.60;99.90
12452;DHT22;6291;48.924;12.204;2023-05-10T21:14:56;11.50;99.90
12452;DHT22;6291;48.924;12.204;2023-05-10T21:20:00;11.50;99.90
12452;DHT22;6291;48.924;12.204;2023-05-10T21:25:06;11.50;99.90
12452;DHT22;6291;48.924;12.204;2023-05-10T21:30:10;11.50;99.90
12452;DHT22;6291;48.924;12.204;2023-05-10T21:35:14;11.50;99.90
12452;DHT22;6291;48.924;12.204;2023-05-10T21:40:19;11.50;99.90
12452;DHT22;6291;48.924;12.204;2023-05-10T21:45:23;11.00;99.90
12452;DHT22;6291;48.924;12.204;2023-05-10T21:50:26;11.40;99.90
12452;DHT22;6291;48.924;12.204;2023-05-10T21:55:32;11.50;99.90
12452;DHT22;6291;48.924;12.204;2023-05-10T22:00:35;11.40;99.90
12452;DHT22;6291;48.924;12.204;2023-05-10T22:05:39;11.40;99.90
12452;DHT22;6291;48.924;12.204;2023-05-10T22:10:43;11.30;99.90
12452;DHT22;6291;48.924;12.204;2023-05-10T22:15:47;11.40;99.90
12452;DHT22;6291;48.924;12.204;2023-05-10T22:20:50;11.40;99.90
12452;DHT22;6291;48.924;12.204;2023-05-10T22:25:59;9.70;99.90
12452;DHT22;6291;48.924;12.204;2023-05-10T22:31:08;11.30;99.90
12452;DHT22;6291;48.924;12.204;2023-05-10T22:36:12;11.10;99.90
12452;DHT22;6291;48.924;12.204;2023-05-10T22:41:17;11.20;99.90
12452;DHT22;6291;48.924;12.204;2023-05-10T22:46:20;11.20;99.90
12452;DHT22;6291;48.924;12.204;2023-05-10T22:51:24;11.20;99.90
12452;DHT22;6291;48.924;12.204;2023-05-10T22:56:29;11.20;99.90
12452;DHT22;6291;48.924;12.204;2023-05-10T23:01:33;11.20;99.90
12452;DHT22;6291;48.924;12.204;2023-05-10T23:06:36;11.30;99.90
12452;DHT22;6291;48.924;12.204;2023-05-10T23:11:42;11.20;99.90
12452;DHT22;6291;48.924;12.204;2023-05-10T23:16:45;11.20;99.90
12452;DHT22;6291;48.924;12.204;2023-05-10T23:21:48;11.20;99.90
12452;DHT22;6291;48.924;12.204;2023-05-10T23:26:53;11.10;99.90
12452;DHT22;6291;48.924;12.204;2023-05-10T23:31:56;11.10;99.90
12452;DHT22;6291;48.924;12.204;2023-05-10T23:37:01;11.10;99.90
12452;DHT22;6291;48.924;12.204;2023-05-10T23:42:05;11.10;99.90
12452;DHT22;6291;48.924;12.204;2023-05-10T23:47:08;11.10;99.90
12452;DHT22;6291;48.924;12.204;2023-05-10T23:52:12;11.10;99.90
12452;DHT22;6291;48.924;12.204;2023-05-10T23:57:16;11.10;99.90
